sensor_id;sensor_type;location;lat;lon;timestamp;temperature;humidity
52731;DHT22;38624;53.242;6.974;2022-09-28T00:02:04;7.40;99.90
52731;DHT22;38624;53.242;6.974;2022-09-28T00:04:30;7.30;99.90
52731;DHT22;38624;53.242;6.974;2022-09-28T00:06:57;7.30;99.90
52731;DHT22;38624;53.242;6.974;2022-09-28T00:09:23;7.50;99.90
52731;DHT22;38624;53.242;6.974;2022-09-28T00:11:49;7.30;99.90
52731;DHT22;38624;53.242;6.974;2022-09-28T00:14:15;7.20;99.90
52731;DHT22;38624;53.242;6.974;2022-09-28T00:16:42;7.20;99.90
52731;DHT22;38624;53.242;6.974;2022-09-28T00:19:09;7.10;99.90
52731;DHT22;38624;53.242;6.974;2022-09-28T00:21:37;7.10;99.90
52731;DHT22;38624;53.242;6.974;2022-09-28T00:24:04;7.10;99.90
52731;DHT22;38624;53.242;6.974;2022-09-28T00:29:20;7.00;99.90
52731;DHT22;38624;53.242;6.974;2022-09-28T00:31:47;7.00;99.90
52731;DHT22;38624;53.242;6.974;2022-09-28T00:34:13;7.00;99.90
52731;DHT22;38624;53.242;6.974;2022-09-28T00:36:43;7.40;99.90
52731;DHT22;38624;53.242;6.974;2022-09-28T00:39:10;6.90;99.90
52731;DHT22;38624;53.242;6.974;2022-09-28T00:41:37;6.90;99.90
52731;DHT22;38624;53.242;6.974;2022-09-28T00:47:08;6.90;99.90
52731;DHT22;38624;53.242;6.974;2022-09-28T00:52:23;6.80;99.90
52731;DHT22;38624;53.242;6.974;2022-09-28T00:54:51;6.70;99.90
52731;DHT22;38624;53.242;6.974;2022-09-28T00:57:18;6.70;99.90
52731;DHT22;38624;53.242;6.974;2022-09-28T00:59:45;6.90;99.90
52731;DHT22;38624;53.242;6.974;2022-09-28T01:02:11;6.90;99.90
52731;DHT22;38624;53.242;6.974;2022-09-28T01:04:37;6.60;99.90
52731;DHT22;38624;53.242;6.974;2022-09-28T01:07:03;6.30;99.90
52731;DHT22;38624;53.242;6.974;2022-09-28T01:09:29;6.60;99.90
52731;DHT22;38624;53.242;6.974;2022-09-28T01:11:55;6.80;99.90
52731;DHT22;38624;53.242;6.974;2022-09-28T01:14:21;6.50;99.90
52731;DHT22;38624;53.242;6.974;2022-09-28T01:22:52;6.50;99.90
52731;DHT22;38624;53.242;6.974;2022-09-28T01:25:29;6.50;99.90
52731;DHT22;38624;53.242;6.974;2022-09-28T01:28:25;6.40;99.90
52731;DHT22;38624;53.242;6.974;2022-09-28T01:33:27;6.40;99.90
52731;DHT22;38624;53.242;6.974;2022-09-28T01:36:10;6.40;99.90
52731;DHT22;38624;53.242;6.974;2022-09-28T01:38:41;6.40;99.90
52731;DHT22;38624;53.242;6.974;2022-09-28T01:41:09;6.40;99.90
52731;DHT22;38624;53.242;6.974;2022-09-28T01:43:39;6.30;99.90
52731;DHT22;38624;53.242;6.974;2022-09-28T01:49:01;6.40;99.90
52731;DHT22;38624;53.242;6.974;2022-09-28T01:54:35;6.20;99.90
52731;DHT22;38624;53.242;6.974;2022-09-28T01:59:41;6.20;99.90
52731;DHT22;38624;53.242;6.974;2022-09-28T02:02:13;5.60;99.90
52731;DHT22;38624;53.242;6.974;2022-09-28T02:07:37;6.10;99.90
52731;DHT22;38624;53.242;6.974;2022-09-28T02:10:09;6.00;99.90
52731;DHT22;38624;53.242;6.974;2022-09-28T02:12:44;6.00;99.90
52731;DHT22;38624;53.242;6.974;2022-09-28T02:15:16;6.00;99.90
52731;DHT22;38624;53.242;6.974;2022-09-28T02:17:44;6.10;99.90
52731;DHT22;38624;53.242;6.974;2022-09-28T02:20:10;6.20;99.90
52731;DHT22;38624;53.242;6.974;2022-09-28T02:22:44;6.60;99.90
52731;DHT22;38624;53.242;6.974;2022-09-28T02:25:29;6.00;99.90
52731;DHT22;38624;53.242;6.974;2022-09-28T02:27:59;6.00;99.90
52731;DHT22;38624;53.242;6.974;2022-09-28T02:30:28;6.00;99.90
52731;DHT22;38624;53.242;6.974;2022-09-28T02:32:58;6.00;99.90
52731;DHT22;38624;53.242;6.974;2022-09-28T02:35:25;6.00;99.90
52731;DHT22;38624;53.242;6.974;2022-09-28T02:37:51;6.00;99.90
52731;DHT22;38624;53.242;6.974;2022-09-28T02:40:24;6.00;99.90
52731;DHT22;38624;53.242;6.974;2022-09-28T02:57:25;5.90;99.90
52731;DHT22;38624;53.242;6.974;2022-09-28T03:02:25;5.80;99.90
52731;DHT22;38624;53.242;6.974;2022-09-28T03:05:17;5.80;99.90
52731;DHT22;38624;53.242;6.974;2022-09-28T03:10:30;5.70;99.90
52731;DHT22;38624;53.242;6.974;2022-09-28T03:12:58;5.70;99.90
52731;DHT22;38624;53.242;6.974;2022-09-28T03:15:27;5.70;99.90
52731;DHT22;38624;53.242;6.974;2022-09-28T03:17:53;5.90;99.90
52731;DHT22;38624;53.242;6.974;2022-09-28T03:20:19;5.70;99.90
52731;DHT22;38624;53.242;6.974;2022-09-28T03:22:45;5.70;99.90
52731;DHT22;38624;53.242;6.974;2022-09-28T03:25:11;5.70;99.90
52731;DHT22;38624;53.242;6.974;2022-09-28T03:27:37;5.70;99.90
52731;DHT22;38624;53.242;6.974;2022-09-28T03:30:04;5.70;99.90
52731;DHT22;38624;53.242;6.974;2022-09-28T03:32:30;5.80;99.90
52731;DHT22;38624;53.242;6.974;2022-09-28T03:34:55;5.80;99.90
52731;DHT22;38624;53.242;6.974;2022-09-28T03:37:21;5.80;99.90
52731;DHT22;38624;53.242;6.974;2022-09-28T03:39:47;5.80;99.90
52731;DHT22;38624;53.242;6.974;2022-09-28T03:42:13;6.10;99.90
52731;DHT22;38624;53.242;6.974;2022-09-28T03:44:39;6.70;99.90
52731;DHT22;38624;53.242;6.974;2022-09-28T03:47:06;6.70;99.90
52731;DHT22;38624;53.242;6.974;2022-09-28T03:49:32;6.20;99.90
52731;DHT22;38624;53.242;6.974;2022-09-28T03:51:58;6.30;99.90
52731;DHT22;38624;53.242;6.974;2022-09-28T03:54:23;6.00;99.90
52731;DHT22;38624;53.242;6.974;2022-09-28T03:56:49;5.90;99.90
52731;DHT22;38624;53.242;6.974;2022-09-28T03:59:16;5.90;99.90
52731;DHT22;38624;53.242;6.974;2022-09-28T04:01:42;6.00;99.90
52731;DHT22;38624;53.242;6.974;2022-09-28T04:04:11;6.00;99.90
52731;DHT22;38624;53.242;6.974;2022-09-28T04:06:37;5.90;99.90
52731;DHT22;38624;53.242;6.974;2022-09-28T04:09:03;6.00;99.90
52731;DHT22;38624;53.242;6.974;2022-09-28T04:11:28;6.00;99.90
52731;DHT22;38624;53.242;6.974;2022-09-28T04:13:54;6.10;99.90
52731;DHT22;38624;53.242;6.974;2022-09-28T04:16:20;5.90;99.90
52731;DHT22;38624;53.242;6.974;2022-09-28T04:18:46;5.90;99.90
52731;DHT22;38624;53.242;6.974;2022-09-28T04:21:15;6.60;99.90
52731;DHT22;38624;53.242;6.974;2022-09-28T04:23:41;5.90;99.90
52731;DHT22;38624;53.242;6.974;2022-09-28T04:26:15;5.90;99.90
52731;DHT22;38624;53.242;6.974;2022-09-28T04:28:44;6.20;99.90
52731;DHT22;38624;53.242;6.974;2022-09-28T04:31:30;5.90;99.90
52731;DHT22;38624;53.242;6.974;2022-09-28T04:34:01;5.80;99.90
52731;DHT22;38624;53.242;6.974;2022-09-28T04:36:26;6.60;99.90
52731;DHT22;38624;53.242;6.974;2022-09-28T04:38:52;5.80;99.90
52731;DHT22;38624;53.242;6.974;2022-09-28T04:41:19;6.20;99.90
52731;DHT22;38624;53.242;6.974;2022-09-28T04:43:47;5.70;99.90
52731;DHT22;38624;53.242;6.974;2022-09-28T04:46:13;5.70;99.90
52731;DHT22;38624;53.242;6.974;2022-09-28T04:48:39;5.70;99.90
52731;DHT22;38624;53.242;6.974;2022-09-28T04:51:05;6.20;99.90
52731;DHT22;38624;53.242;6.974;2022-09-28T04:53:31;5.70;99.90
52731;DHT22;38624;53.242;6.974;2022-09-28T04:58:24;5.60;99.90
52731;DHT22;38624;53.242;6.974;2022-09-28T05:00:50;5.60;99.90
52731;DHT22;38624;53.242;6.974;2022-09-28T05:03:16;5.60;99.90
52731;DHT22;38624;53.242;6.974;2022-09-28T05:05:43;5.60;99.90
52731;DHT22;38624;53.242;6.974;2022-09-28T05:08:09;5.60;99.90
52731;DHT22;38624;53.242;6.974;2022-09-28T05:10:35;5.50;99.90
52731;DHT22;38624;53.242;6.974;2022-09-28T05:13:05;5.50;99.90
52731;DHT22;38624;53.242;6.974;2022-09-28T05:15:33;5.50;99.90
52731;DHT22;38624;53.242;6.974;2022-09-28T05:17:59;6.60;99.90
52731;DHT22;38624;53.242;6.974;2022-09-28T05:20:25;5.40;99.90
52731;DHT22;38624;53.242;6.974;2022-09-28T05:22:50;5.80;99.90
52731;DHT22;38624;53.242;6.974;2022-09-28T05:25:16;5.40;99.90
52731;DHT22;38624;53.242;6.974;2022-09-28T05:27:42;5.70;99.90
52731;DHT22;38624;53.242;6.974;2022-09-28T05:30:08;5.30;99.90
52731;DHT22;38624;53.242;6.974;2022-09-28T05:32:38;5.30;99.90
52731;DHT22;38624;53.242;6.974;2022-09-28T05:35:04;5.30;99.90
52731;DHT22;38624;53.242;6.974;2022-09-28T05:37:30;5.30;99.90
52731;DHT22;38624;53.242;6.974;2022-09-28T05:39:56;5.50;99.90
52731;DHT22;38624;53.242;6.974;2022-09-28T05:42:22;5.30;99.90
52731;DHT22;38624;53.242;6.974;2022-09-28T05:44:47;5.30;99.90
52731;DHT22;38624;53.242;6.974;2022-09-28T05:47:13;5.20;99.90
52731;DHT22;38624;53.242;6.974;2022-09-28T05:49:39;5.30;99.90
52731;DHT22;38624;53.242;6.974;2022-09-28T05:52:04;5.30;99.90
52731;DHT22;38624;53.242;6.974;2022-09-28T05:54:30;5.70;99.90
52731;DHT22;38624;53.242;6.974;2022-09-28T05:56:56;6.10;99.90
52731;DHT22;38624;53.242;6.974;2022-09-28T05:59:21;5.30;99.90
52731;DHT22;38624;53.242;6.974;2022-09-28T06:01:47;5.50;99.90
52731;DHT22;38624;53.242;6.974;2022-09-28T06:04:13;5.40;99.90
52731;DHT22;38624;53.242;6.974;2022-09-28T06:06:40;5.40;99.90
52731;DHT22;38624;53.242;6.974;2022-09-28T06:09:06;5.40;99.90
52731;DHT22;38624;53.242;6.974;2022-09-28T06:11:32;5.40;99.90
52731;DHT22;38624;53.242;6.974;2022-09-28T06:13:58;5.40;99.90
52731;DHT22;38624;53.242;6.974;2022-09-28T06:16:23;5.40;99.90
52731;DHT22;38624;53.242;6.974;2022-09-28T06:18:50;5.40;99.90
52731;DHT22;38624;53.242;6.974;2022-09-28T06:21:15;6.10;99.90
52731;DHT22;38624;53.242;6.974;2022-09-28T06:23:41;5.40;99.90
52731;DHT22;38624;53.242;6.974;2022-09-28T06:26:07;5.40;99.90
52731;DHT22;38624;53.242;6.974;2022-09-28T06:28:33;5.90;99.90
52731;DHT22;38624;53.242;6.974;2022-09-28T06:30:59;5.40;99.90
52731;DHT22;38624;53.242;6.974;2022-09-28T06:33:25;5.40;99.90
52731;DHT22;38624;53.242;6.974;2022-09-28T06:35:51;5.40;99.90
52731;DHT22;38624;53.242;6.974;2022-09-28T06:38:18;5.40;99.90
52731;DHT22;38624;53.242;6.974;2022-09-28T06:40:43;5.80;99.90
52731;DHT22;38624;53.242;6.974;2022-09-28T06:43:13;5.50;99.90
52731;DHT22;38624;53.242;6.974;2022-09-28T06:45:41;5.50;99.90
52731;DHT22;38624;53.242;6.974;2022-09-28T06:48:09;5.40;99.90
52731;DHT22;38624;53.242;6.974;2022-09-28T06:50:38;5.90;99.90
52731;DHT22;38624;53.242;6.974;2022-09-28T06:53:05;5.40;99.90
52731;DHT22;38624;53.242;6.974;2022-09-28T06:55:32;5.60;99.90
52731;DHT22;38624;53.242;6.974;2022-09-28T06:57:59;5.40;99.90
52731;DHT22;38624;53.242;6.974;2022-09-28T07:00:25;5.70;99.90
52731;DHT22;38624;53.242;6.974;2022-09-28T07:02:51;5.30;99.90
52731;DHT22;38624;53.242;6.974;2022-09-28T07:05:17;5.30;99.90
52731;DHT22;38624;53.242;6.974;2022-09-28T07:07:48;5.40;99.90
52731;DHT22;38624;53.242;6.974;2022-09-28T07:10:14;6.10;99.90
52731;DHT22;38624;53.242;6.974;2022-09-28T07:12:40;5.40;99.90
52731;DHT22;38624;53.242;6.974;2022-09-28T07:15:06;5.40;99.90
52731;DHT22;38624;53.242;6.974;2022-09-28T07:17:32;5.40;99.90
52731;DHT22;38624;53.242;6.974;2022-09-28T07:19:59;5.40;99.90
52731;DHT22;38624;53.242;6.974;2022-09-28T07:22:25;5.40;99.90
52731;DHT22;38624;53.242;6.974;2022-09-28T07:24:50;5.40;99.90
52731;DHT22;38624;53.242;6.974;2022-09-28T07:27:16;6.00;99.90
52731;DHT22;38624;53.242;6.974;2022-09-28T07:29:42;5.50;99.90
52731;DHT22;38624;53.242;6.974;2022-09-28T07:32:08;5.60;99.90
52731;DHT22;38624;53.242;6.974;2022-09-28T07:34:34;5.60;99.90
52731;DHT22;38624;53.242;6.974;2022-09-28T07:37:09;5.70;99.90
52731;DHT22;38624;53.242;6.974;2022-09-28T07:39:36;5.80;99.90
52731;DHT22;38624;53.242;6.974;2022-09-28T07:42:23;5.80;99.90
52731;DHT22;38624;53.242;6.974;2022-09-28T07:44:49;5.90;99.90
52731;DHT22;38624;53.242;6.974;2022-09-28T07:47:16;6.00;99.90
52731;DHT22;38624;53.242;6.974;2022-09-28T07:49:43;6.40;99.90
52731;DHT22;38624;53.242;6.974;2022-09-28T07:52:09;6.40;99.90
52731;DHT22;38624;53.242;6.974;2022-09-28T07:54:36;6.20;99.90
52731;DHT22;38624;53.242;6.974;2022-09-28T07:57:04;6.90;99.90
52731;DHT22;38624;53.242;6.974;2022-09-28T07:59:31;6.40;99.90
52731;DHT22;38624;53.242;6.974;2022-09-28T08:01:57;6.60;99.90
52731;DHT22;38624;53.242;6.974;2022-09-28T08:04:23;6.50;99.90
52731;DHT22;38624;53.242;6.974;2022-09-28T08:06:49;6.60;99.90
52731;DHT22;38624;53.242;6.974;2022-09-28T08:09:15;6.70;99.90
52731;DHT22;38624;53.242;6.974;2022-09-28T08:11:41;6.80;99.90
52731;DHT22;38624;53.242;6.974;2022-09-28T08:14:08;6.80;99.90
52731;DHT22;38624;53.242;6.974;2022-09-28T08:16:35;6.90;99.90
52731;DHT22;38624;53.242;6.974;2022-09-28T08:19:01;7.00;99.90
52731;DHT22;38624;53.242;6.974;2022-09-28T08:21:26;7.10;99.90
52731;DHT22;38624;53.242;6.974;2022-09-28T08:24:15;7.20;99.90
52731;DHT22;38624;53.242;6.974;2022-09-28T08:26:41;7.40;99.90
52731;DHT22;38624;53.242;6.974;2022-09-28T08:29:07;7.50;99.90
52731;DHT22;38624;53.242;6.974;2022-09-28T08:31:33;7.70;99.90
52731;DHT22;38624;53.242;6.974;2022-09-28T08:34:00;7.80;99.90
52731;DHT22;38624;53.242;6.974;2022-09-28T08:36:26;7.90;99.90
52731;DHT22;38624;53.242;6.974;2022-09-28T08:38:53;8.00;99.90
52731;DHT22;38624;53.242;6.974;2022-09-28T08:44:17;8.20;99.90
52731;DHT22;38624;53.242;6.974;2022-09-28T08:47:14;8.40;99.90
52731;DHT22;38624;53.242;6.974;2022-09-28T08:50:01;8.60;99.90
52731;DHT22;38624;53.242;6.974;2022-09-28T08:52:35;8.70;99.90
52731;DHT22;38624;53.242;6.974;2022-09-28T08:55:15;8.90;99.90
52731;DHT22;38624;53.242;6.974;2022-09-28T09:00:32;9.20;99.90
52731;DHT22;38624;53.242;6.974;2022-09-28T09:03:16;9.40;99.90
52731;DHT22;38624;53.242;6.974;2022-09-28T09:14:42;9.80;99.90
52731;DHT22;38624;53.242;6.974;2022-09-28T09:20:10;10.00;99.90
52731;DHT22;38624;53.242;6.974;2022-09-28T09:22:49;10.00;99.90
52731;DHT22;38624;53.242;6.974;2022-09-28T09:30:36;10.10;99.90
52731;DHT22;38624;53.242;6.974;2022-09-28T09:38:40;10.30;99.90
52731;DHT22;38624;53.242;6.974;2022-09-28T09:44:31;10.60;99.90
52731;DHT22;38624;53.242;6.974;2022-09-28T09:47:10;10.80;99.90
52731;DHT22;38624;53.242;6.974;2022-09-28T09:52:33;10.90;99.90
52731;DHT22;38624;53.242;6.974;2022-09-28T09:56:04;11.00;99.90
52731;DHT22;38624;53.242;6.974;2022-09-28T09:58:19;11.00;99.90
52731;DHT22;38624;53.242;6.974;2022-09-28T10:00:49;11.20;99.90
52731;DHT22;38624;53.242;6.974;2022-09-28T10:03:29;11.20;99.90
52731;DHT22;38624;53.242;6.974;2022-09-28T10:05:59;11.20;99.90
52731;DHT22;38624;53.242;6.974;2022-09-28T10:08:31;11.20;99.90
52731;DHT22;38624;53.242;6.974;2022-09-28T10:11:47;11.40;99.90
52731;DHT22;38624;53.242;6.974;2022-09-28T10:13:54;11.30;99.90
52731;DHT22;38624;53.242;6.974;2022-09-28T10:16:20;11.30;99.90
52731;DHT22;38624;53.242;6.974;2022-09-28T10:18:46;11.40;99.90
52731;DHT22;38624;53.242;6.974;2022-09-28T10:21:14;11.50;99.90
52731;DHT22;38624;53.242;6.974;2022-09-28T10:23:41;11.70;99.90
52731;DHT22;38624;53.242;6.974;2022-09-28T10:26:18;11.80;99.90
52731;DHT22;38624;53.242;6.974;2022-09-28T10:28:59;12.00;99.90
52731;DHT22;38624;53.242;6.974;2022-09-28T10:31:34;12.00;99.90
52731;DHT22;38624;53.242;6.974;2022-09-28T10:34:00;12.00;99.90
52731;DHT22;38624;53.242;6.974;2022-09-28T10:36:26;12.00;99.90
52731;DHT22;38624;53.242;6.974;2022-09-28T10:38:52;12.00;99.90
52731;DHT22;38624;53.242;6.974;2022-09-28T10:41:19;12.10;99.90
52731;DHT22;38624;53.242;6.974;2022-09-28T10:43:57;12.10;99.90
52731;DHT22;38624;53.242;6.974;2022-09-28T10:46:34;12.10;99.90
52731;DHT22;38624;53.242;6.974;2022-09-28T10:49:06;12.20;99.90
52731;DHT22;38624;53.242;6.974;2022-09-28T10:51:46;12.40;99.90
52731;DHT22;38624;53.242;6.974;2022-09-28T10:54:18;12.60;99.90
52731;DHT22;38624;53.242;6.974;2022-09-28T10:56:45;12.70;99.90
52731;DHT22;38624;53.242;6.974;2022-09-28T11:04:28;12.80;99.90
52731;DHT22;38624;53.242;6.974;2022-09-28T11:06:54;12.80;99.90
52731;DHT22;38624;53.242;6.974;2022-09-28T11:09:31;12.90;99.90
52731;DHT22;38624;53.242;6.974;2022-09-28T11:11:58;13.00;99.90
52731;DHT22;38624;53.242;6.974;2022-09-28T11:14:30;13.20;99.90
52731;DHT22;38624;53.242;6.974;2022-09-28T11:19:42;13.50;99.90
52731;DHT22;38624;53.242;6.974;2022-09-28T11:22:26;14.10;99.90
52731;DHT22;38624;53.242;6.974;2022-09-28T11:27:38;15.30;99.90
52731;DHT22;38624;53.242;6.974;2022-09-28T11:30:04;15.60;99.90
52731;DHT22;38624;53.242;6.974;2022-09-28T11:32:40;16.10;99.90
52731;DHT22;38624;53.242;6.974;2022-09-28T11:35:19;16.70;99.90
52731;DHT22;38624;53.242;6.974;2022-09-28T11:49:01;20.50;99.90
52731;DHT22;38624;53.242;6.974;2022-09-28T11:51:30;21.20;99.90
52731;DHT22;38624;53.242;6.974;2022-09-28T11:54:03;21.40;99.90
52731;DHT22;38624;53.242;6.974;2022-09-28T11:56:38;22.10;99.90
52731;DHT22;38624;53.242;6.974;2022-09-28T12:04:20;24.10;94.00
52731;DHT22;38624;53.242;6.974;2022-09-28T12:06:56;24.70;93.30
52731;DHT22;38624;53.242;6.974;2022-09-28T12:09:31;24.90;81.60
52731;DHT22;38624;53.242;6.974;2022-09-28T12:12:03;25.50;84.00
52731;DHT22;38624;53.242;6.974;2022-09-28T12:14:38;26.00;82.20
52731;DHT22;38624;53.242;6.974;2022-09-28T12:19:47;26.80;75.20
52731;DHT22;38624;53.242;6.974;2022-09-28T12:22:40;26.30;76.20
52731;DHT22;38624;53.242;6.974;2022-09-28T12:25:11;25.20;77.70
52731;DHT22;38624;53.242;6.974;2022-09-28T12:27:50;26.20;72.40
52731;DHT22;38624;53.242;6.974;2022-09-28T12:30:19;27.20;71.00
52731;DHT22;38624;53.242;6.974;2022-09-28T12:33:03;27.80;72.10
52731;DHT22;38624;53.242;6.974;2022-09-28T12:49:22;24.20;72.70
52731;DHT22;38624;53.242;6.974;2022-09-28T12:51:52;24.80;70.30
52731;DHT22;38624;53.242;6.974;2022-09-28T12:54:41;26.60;69.70
52731;DHT22;38624;53.242;6.974;2022-09-28T13:00:16;29.20;64.50
52731;DHT22;38624;53.242;6.974;2022-09-28T13:05:57;30.50;60.90
52731;DHT22;38624;53.242;6.974;2022-09-28T13:17:37;25.90;61.60
52731;DHT22;38624;53.242;6.974;2022-09-28T13:23:20;23.40;65.70
52731;DHT22;38624;53.242;6.974;2022-09-28T13:25:57;22.40;69.00
52731;DHT22;38624;53.242;6.974;2022-09-28T13:28:25;21.70;69.80
52731;DHT22;38624;53.242;6.974;2022-09-28T13:30:54;21.40;71.90
52731;DHT22;38624;53.242;6.974;2022-09-28T13:33:35;20.90;72.60
52731;DHT22;38624;53.242;6.974;2022-09-28T13:36:50;20.60;72.80
52731;DHT22;38624;53.242;6.974;2022-09-28T13:38:49;20.10;75.30
52731;DHT22;38624;53.242;6.974;2022-09-28T13:41:26;19.50;75.70
52731;DHT22;38624;53.242;6.974;2022-09-28T13:44:00;19.00;76.70
52731;DHT22;38624;53.242;6.974;2022-09-28T13:55:21;17.20;83.10
52731;DHT22;38624;53.242;6.974;2022-09-28T13:57:59;16.90;88.90
52731;DHT22;38624;53.242;6.974;2022-09-28T14:00:42;16.60;92.50
52731;DHT22;38624;53.242;6.974;2022-09-28T14:11:59;15.70;99.90
52731;DHT22;38624;53.242;6.974;2022-09-28T14:14:29;15.50;99.90
52731;DHT22;38624;53.242;6.974;2022-09-28T14:19:48;15.20;99.90
52731;DHT22;38624;53.242;6.974;2022-09-28T14:22:27;15.10;99.90
52731;DHT22;38624;53.242;6.974;2022-09-28T14:25:27;15.00;99.90
52731;DHT22;38624;53.242;6.974;2022-09-28T14:35:49;14.90;99.90
52731;DHT22;38624;53.242;6.974;2022-09-28T14:38:54;14.80;99.90
52731;DHT22;38624;53.242;6.974;2022-09-28T14:41:40;14.80;99.90
52731;DHT22;38624;53.242;6.974;2022-09-28T14:44:08;14.70;99.90
52731;DHT22;38624;53.242;6.974;2022-09-28T14:46:39;14.80;99.90
52731;DHT22;38624;53.242;6.974;2022-09-28T14:51:59;14.80;99.90
52731;DHT22;38624;53.242;6.974;2022-09-28T14:54:37;14.90;99.90
52731;DHT22;38624;53.242;6.974;2022-09-28T14:57:15;14.90;99.90
52731;DHT22;38624;53.242;6.974;2022-09-28T14:59:42;14.80;99.90
52731;DHT22;38624;53.242;6.974;2022-09-28T15:02:13;14.80;99.90
52731;DHT22;38624;53.242;6.974;2022-09-28T15:07:47;14.80;99.90
52731;DHT22;38624;53.242;6.974;2022-09-28T15:12:53;14.80;99.90
52731;DHT22;38624;53.242;6.974;2022-09-28T15:15:27;15.10;99.90
52731;DHT22;38624;53.242;6.974;2022-09-28T15:18:30;16.70;99.90
52731;DHT22;38624;53.242;6.974;2022-09-28T15:20:58;18.10;99.90
52731;DHT22;38624;53.242;6.974;2022-09-28T15:23:39;18.40;98.70
52731;DHT22;38624;53.242;6.974;2022-09-28T15:26:17;17.70;98.00
52731;DHT22;38624;53.242;6.974;2022-09-28T15:28:44;17.30;98.70
52731;DHT22;38624;53.242;6.974;2022-09-28T15:31:17;17.00;98.90
52731;DHT22;38624;53.242;6.974;2022-09-28T15:33:43;16.60;99.90
52731;DHT22;38624;53.242;6.974;2022-09-28T15:36:37;16.30;99.90
52731;DHT22;38624;53.242;6.974;2022-09-28T15:39:13;16.10;99.90
52731;DHT22;38624;53.242;6.974;2022-09-28T15:41:41;16.00;99.90
52731;DHT22;38624;53.242;6.974;2022-09-28T15:46:39;15.40;99.90
52731;DHT22;38624;53.242;6.974;2022-09-28T15:49:07;15.20;99.90
52731;DHT22;38624;53.242;6.974;2022-09-28T15:51:50;15.00;99.90
52731;DHT22;38624;53.242;6.974;2022-09-28T15:55:04;14.70;99.90
52731;DHT22;38624;53.242;6.974;2022-09-28T15:57:28;14.50;99.90
52731;DHT22;38624;53.242;6.974;2022-09-28T15:59:57;14.30;99.90
52731;DHT22;38624;53.242;6.974;2022-09-28T16:02:24;14.20;99.90
52731;DHT22;38624;53.242;6.974;2022-09-28T16:04:54;14.10;99.90
52731;DHT22;38624;53.242;6.974;2022-09-28T16:07:24;13.90;99.90
52731;DHT22;38624;53.242;6.974;2022-09-28T16:12:18;13.90;99.90
52731;DHT22;38624;53.242;6.974;2022-09-28T16:14:47;14.00;99.90
52731;DHT22;38624;53.242;6.974;2022-09-28T16:17:21;14.00;99.90
52731;DHT22;38624;53.242;6.974;2022-09-28T16:19:54;14.00;99.90
52731;DHT22;38624;53.242;6.974;2022-09-28T16:22:20;14.00;99.90
52731;DHT22;38624;53.242;6.974;2022-09-28T16:24:55;14.10;99.90
52731;DHT22;38624;53.242;6.974;2022-09-28T16:27:40;14.00;99.90
52731;DHT22;38624;53.242;6.974;2022-09-28T16:32:45;13.70;99.90
52731;DHT22;38624;53.242;6.974;2022-09-28T16:37:43;13.40;99.90
52731;DHT22;38624;53.242;6.974;2022-09-28T16:40:10;13.20;99.90
52731;DHT22;38624;53.242;6.974;2022-09-28T16:42:43;13.10;99.90
52731;DHT22;38624;53.242;6.974;2022-09-28T16:45:19;13.00;99.90
52731;DHT22;38624;53.242;6.974;2022-09-28T16:47:45;12.90;99.90
52731;DHT22;38624;53.242;6.974;2022-09-28T16:50:14;12.70;99.90
52731;DHT22;38624;53.242;6.974;2022-09-28T16:52:40;12.70;99.90
52731;DHT22;38624;53.242;6.974;2022-09-28T16:55:25;12.50;99.90
52731;DHT22;38624;53.242;6.974;2022-09-28T16:57:50;12.40;99.90
52731;DHT22;38624;53.242;6.974;2022-09-28T17:00:19;12.40;99.90
52731;DHT22;38624;53.242;6.974;2022-09-28T17:02:49;12.30;99.90
52731;DHT22;38624;53.242;6.974;2022-09-28T17:05:19;12.20;99.90
52731;DHT22;38624;53.242;6.974;2022-09-28T17:07:50;12.10;99.90
52731;DHT22;38624;53.242;6.974;2022-09-28T17:12:51;11.90;99.90
52731;DHT22;38624;53.242;6.974;2022-09-28T17:15:17;11.80;99.90
52731;DHT22;38624;53.242;6.974;2022-09-28T17:17:45;11.70;99.90
52731;DHT22;38624;53.242;6.974;2022-09-28T17:20:18;11.60;99.90
52731;DHT22;38624;53.242;6.974;2022-09-28T17:22:45;11.50;99.90
52731;DHT22;38624;53.242;6.974;2022-09-28T17:25:11;11.40;99.90
52731;DHT22;38624;53.242;6.974;2022-09-28T17:27:39;11.40;99.90
52731;DHT22;38624;53.242;6.974;2022-09-28T17:30:08;11.30;99.90
52731;DHT22;38624;53.242;6.974;2022-09-28T17:32:36;11.20;99.90
52731;DHT22;38624;53.242;6.974;2022-09-28T17:35:02;11.20;99.90
52731;DHT22;38624;53.242;6.974;2022-09-28T17:37:28;11.10;99.90
52731;DHT22;38624;53.242;6.974;2022-09-28T17:39:53;11.00;99.90
52731;DHT22;38624;53.242;6.974;2022-09-28T17:42:19;11.00;99.90
52731;DHT22;38624;53.242;6.974;2022-09-28T17:44:45;10.90;99.90
52731;DHT22;38624;53.242;6.974;2022-09-28T17:47:10;10.80;99.90
52731;DHT22;38624;53.242;6.974;2022-09-28T17:49:36;10.80;99.90
52731;DHT22;38624;53.242;6.974;2022-09-28T17:52:03;10.70;99.90
52731;DHT22;38624;53.242;6.974;2022-09-28T17:54:29;10.70;99.90
52731;DHT22;38624;53.242;6.974;2022-09-28T17:56:55;10.60;99.90
52731;DHT22;38624;53.242;6.974;2022-09-28T17:59:21;10.50;99.90
52731;DHT22;38624;53.242;6.974;2022-09-28T18:01:47;10.50;99.90
52731;DHT22;38624;53.242;6.974;2022-09-28T18:04:13;10.50;99.90
52731;DHT22;38624;53.242;6.974;2022-09-28T18:06:41;10.40;99.90
52731;DHT22;38624;53.242;6.974;2022-09-28T18:09:10;10.30;99.90
52731;DHT22;38624;53.242;6.974;2022-09-28T18:11:38;10.30;99.90
52731;DHT22;38624;53.242;6.974;2022-09-28T18:14:06;10.30;99.90
52731;DHT22;38624;53.242;6.974;2022-09-28T18:16:32;10.20;99.90
52731;DHT22;38624;53.242;6.974;2022-09-28T18:18:58;10.20;99.90
52731;DHT22;38624;53.242;6.974;2022-09-28T18:21:24;10.10;99.90
52731;DHT22;38624;53.242;6.974;2022-09-28T18:23:49;10.10;99.90
52731;DHT22;38624;53.242;6.974;2022-09-28T18:26:16;10.00;99.90
52731;DHT22;38624;53.242;6.974;2022-09-28T18:28:44;10.00;99.90
52731;DHT22;38624;53.242;6.974;2022-09-28T18:31:12;10.00;99.90
52731;DHT22;38624;53.242;6.974;2022-09-28T18:33:38;10.00;99.90
52731;DHT22;38624;53.242;6.974;2022-09-28T18:36:05;9.90;99.90
52731;DHT22;38624;53.242;6.974;2022-09-28T18:38:33;9.90;99.90
52731;DHT22;38624;53.242;6.974;2022-09-28T18:41:09;9.80;99.90
52731;DHT22;38624;53.242;6.974;2022-09-28T18:43:36;9.80;99.90
52731;DHT22;38624;53.242;6.974;2022-09-28T18:46:07;9.80;99.90
52731;DHT22;38624;53.242;6.974;2022-09-28T18:48:34;9.70;99.90
52731;DHT22;38624;53.242;6.974;2022-09-28T18:51:01;9.70;99.90
52731;DHT22;38624;53.242;6.974;2022-09-28T18:53:26;9.60;99.90
52731;DHT22;38624;53.242;6.974;2022-09-28T18:55:53;9.60;99.90
52731;DHT22;38624;53.242;6.974;2022-09-28T18:58:21;9.50;99.90
52731;DHT22;38624;53.242;6.974;2022-09-28T19:00:46;9.50;99.90
52731;DHT22;38624;53.242;6.974;2022-09-28T19:03:12;9.50;99.90
52731;DHT22;38624;53.242;6.974;2022-09-28T19:05:42;9.40;99.90
52731;DHT22;38624;53.242;6.974;2022-09-28T19:08:08;9.40;99.90
52731;DHT22;38624;53.242;6.974;2022-09-28T19:10:35;9.30;99.90
52731;DHT22;38624;53.242;6.974;2022-09-28T19:13:01;9.30;99.90
52731;DHT22;38624;53.242;6.974;2022-09-28T19:15:26;9.20;99.90